createdAt,value
2019-04-03T00:02:26.839Z,9.85
2019-04-03T00:04:58.552Z,9.84
2019-04-03T00:07:30.409Z,9.88
2019-04-03T00:10:02.576Z,9.81
2019-04-03T00:12:34.473Z,9.81
2019-04-03T00:15:06.578Z,9.72
2019-04-03T00:17:38.360Z,9.73
2019-04-03T00:20:10.146Z,9.67
2019-04-03T00:22:41.908Z,9.65
2019-04-03T00:25:13.630Z,9.66
2019-04-03T00:27:45.559Z,9.63
2019-04-03T00:30:17.255Z,9.60
2019-04-03T00:32:49.043Z,9.54
2019-04-03T00:35:23.112Z,9.52
2019-04-03T00:37:54.374Z,9.52
2019-04-03T00:40:26.205Z,9.50
2019-04-03T00:42:57.865Z,9.48
2019-04-03T00:45:29.677Z,9.35
2019-04-03T00:48:01.599Z,9.41
2019-04-03T00:50:33.358Z,9.39
2019-04-03T00:53:05.266Z,9.33
2019-04-03T00:55:36.942Z,9.32
2019-04-03T00:58:36.407Z,9.28
2019-04-03T01:01:09.204Z,9.27
2019-04-03T01:03:40.938Z,9.21
2019-04-03T01:06:12.693Z,9.26
2019-04-03T01:08:44.430Z,9.26
2019-04-03T01:11:16.214Z,9.17
2019-04-03T01:13:48.080Z,9.13
2019-04-03T01:16:19.860Z,9.07
2019-04-03T01:18:51.648Z,9.08
2019-04-03T01:21:28.220Z,9.08
2019-04-03T01:24:00.152Z,8.98
2019-04-03T01:26:32.130Z,8.99
2019-04-03T01:29:03.899Z,8.89
2019-04-03T01:31:35.672Z,8.92
2019-04-03T01:34:07.500Z,8.82
2019-04-03T01:36:39.208Z,8.89
2019-04-03T01:39:10.909Z,8.86
2019-04-03T01:41:42.679Z,8.78
2019-04-03T01:44:14.368Z,8.86
2019-04-03T01:46:45.955Z,8.84
2019-04-03T01:49:17.569Z,8.85
2019-04-03T01:51:49.385Z,8.87
2019-04-03T01:54:21.618Z,8.89
2019-04-03T01:56:53.694Z,8.85
2019-04-03T01:59:25.419Z,8.79
2019-04-03T02:01:57.378Z,8.81
2019-04-03T02:04:29.066Z,8.73
2019-04-03T02:07:00.850Z,8.68
2019-04-03T02:09:32.464Z,8.74
2019-04-03T02:12:04.417Z,8.69
2019-04-03T02:14:36.233Z,8.74
2019-04-03T02:17:09.090Z,8.68
2019-04-03T02:19:40.976Z,8.67
2019-04-03T02:22:12.574Z,8.62
2019-04-03T02:24:44.447Z,8.65
2019-04-03T02:27:16.139Z,8.65
2019-04-03T02:29:47.925Z,8.59
2019-04-03T02:32:21.396Z,8.62
2019-04-03T02:34:53.016Z,8.52
2019-04-03T02:37:25.039Z,8.58
2019-04-03T02:40:00.107Z,8.57
2019-04-03T02:42:30.037Z,8.50
2019-04-03T02:45:02.342Z,8.48
2019-04-03T02:47:34.744Z,8.51
2019-04-03T02:50:06.800Z,8.40
2019-04-03T02:52:38.603Z,8.42
2019-04-03T02:55:10.364Z,8.42
2019-04-03T02:57:42.139Z,8.42
2019-04-03T03:00:13.885Z,8.40
2019-04-03T03:02:46.212Z,8.30
2019-04-03T03:05:18.101Z,8.37
2019-04-03T03:07:49.901Z,8.35
2019-04-03T03:10:21.585Z,8.32
2019-04-03T03:12:53.358Z,8.29
2019-04-03T03:15:24.996Z,8.28
2019-04-03T03:17:56.690Z,8.26
2019-04-03T03:20:28.434Z,8.29
2019-04-03T03:23:00.974Z,8.25
2019-04-03T03:25:34.294Z,8.25
2019-04-03T03:28:07.320Z,8.18
2019-04-03T03:30:46.777Z,8.17
2019-04-03T03:33:28.858Z,8.14
2019-04-03T03:35:48.886Z,8.07
2019-04-03T03:38:19.780Z,8.08
2019-04-03T03:40:51.555Z,8.05
2019-04-03T03:43:23.448Z,8.03
2019-04-03T03:45:55.104Z,8.02
2019-04-03T03:48:26.710Z,8.06
2019-04-03T03:50:58.678Z,8.04
2019-04-03T03:53:30.534Z,7.99
2019-04-03T03:56:02.966Z,7.96
2019-04-03T03:58:35.076Z,7.90
2019-04-03T04:01:06.791Z,7.90
2019-04-03T04:03:41.096Z,7.81
2019-04-03T04:06:11.815Z,7.78
2019-04-03T04:08:45.165Z,7.77
2019-04-03T04:11:17.039Z,7.83
2019-04-03T04:13:49.750Z,7.82
2019-04-03T04:16:21.995Z,7.73
2019-04-03T04:18:57.004Z,7.71
2019-04-03T04:21:27.247Z,7.75
2019-04-03T04:23:59.003Z,7.71
2019-04-03T04:26:31.606Z,7.63
2019-04-03T04:29:03.981Z,7.64
2019-04-03T04:31:35.686Z,7.56
2019-04-03T04:34:07.463Z,7.55
2019-04-03T04:36:39.184Z,7.51
2019-04-03T04:39:10.894Z,7.48
2019-04-03T04:41:42.650Z,7.49
2019-04-03T04:44:15.201Z,7.54
2019-04-03T04:46:47.050Z,7.53
2019-04-03T04:49:18.768Z,7.52
2019-04-03T04:51:50.470Z,7.53
2019-04-03T04:54:22.178Z,7.56
2019-04-03T04:56:54.006Z,7.52
2019-04-03T04:59:25.948Z,7.59
2019-04-03T05:01:57.707Z,7.61
2019-04-03T05:04:29.409Z,7.59
2019-04-03T05:07:01.000Z,7.55
2019-04-03T05:09:34.361Z,7.58
2019-04-03T05:12:06.018Z,7.60
2019-04-03T05:14:37.637Z,7.60
2019-04-03T05:17:09.351Z,7.67
2019-04-03T05:19:41.041Z,7.69
2019-04-03T05:22:12.771Z,7.68
2019-04-03T05:24:45.443Z,7.73
2019-04-03T05:27:17.054Z,7.70
2019-04-03T05:29:48.756Z,7.74
2019-04-03T05:32:20.465Z,7.74
2019-04-03T05:34:52.459Z,7.76
2019-04-03T05:37:24.317Z,7.79
2019-04-03T05:39:56.241Z,7.88
2019-04-03T05:42:29.217Z,7.96
2019-04-03T05:45:03.842Z,7.94
2019-04-03T05:47:34.728Z,8.00
2019-04-03T05:50:06.744Z,8.11
2019-04-03T05:52:38.508Z,8.19
2019-04-03T05:55:10.272Z,8.29
2019-04-03T05:57:44.939Z,8.31
2019-04-03T06:00:15.543Z,8.37
2019-04-03T06:02:47.400Z,8.47
2019-04-03T06:05:19.624Z,8.58
2019-04-03T06:07:51.767Z,8.67
2019-04-03T06:10:23.643Z,8.76
2019-04-03T06:12:55.364Z,8.83
2019-04-03T06:15:27.233Z,8.92
2019-04-03T06:17:59.009Z,8.97
2019-04-03T06:20:30.714Z,9.08
2019-04-03T06:23:02.683Z,9.15
2019-04-03T06:25:35.343Z,9.27
2019-04-03T06:28:07.039Z,9.35
2019-04-03T06:30:38.642Z,9.40
2019-04-03T06:33:10.546Z,9.50
2019-04-03T06:35:44.664Z,9.55
2019-04-03T06:38:15.731Z,9.66
2019-04-03T06:40:47.507Z,9.81
2019-04-03T06:43:19.513Z,9.81
2019-04-03T06:45:51.160Z,9.93
2019-04-03T06:48:22.903Z,10.07
2019-04-03T06:50:54.688Z,10.15
2019-04-03T06:53:28.574Z,10.25
2019-04-03T06:55:59.851Z,10.33
2019-04-03T06:58:38.105Z,10.42
2019-04-03T07:01:05.642Z,10.48
2019-04-03T07:03:37.416Z,10.55
2019-04-03T07:06:09.110Z,10.61
2019-04-03T07:08:41.176Z,10.67
2019-04-03T07:11:22.842Z,10.76
2019-04-03T07:13:46.471Z,10.82
2019-04-03T07:16:18.240Z,10.91
2019-04-03T07:18:50.129Z,11.06
2019-04-03T07:21:22.815Z,11.12
2019-04-03T07:23:55.529Z,11.23
2019-04-03T07:26:27.545Z,11.36
2019-04-03T07:28:59.543Z,11.46
2019-04-03T07:31:31.681Z,11.51
2019-04-03T07:34:03.967Z,11.59
2019-04-03T07:36:35.804Z,11.69
2019-04-03T07:39:10.931Z,11.78
2019-04-03T07:41:42.216Z,11.88
2019-04-03T07:44:14.286Z,12.05
2019-04-03T07:46:46.114Z,12.15
2019-04-03T07:49:17.837Z,12.22
2019-04-03T07:51:49.839Z,12.33
2019-04-03T07:54:22.522Z,12.44
2019-04-03T07:56:56.422Z,12.59
2019-04-03T07:59:28.249Z,12.77
2019-04-03T08:02:00.121Z,12.92
2019-04-03T08:04:32.086Z,13.01
2019-04-03T08:07:03.948Z,13.08
2019-04-03T08:09:35.760Z,13.20
2019-04-03T08:12:07.559Z,13.31
2019-04-03T08:14:41.204Z,13.41
2019-04-03T08:17:12.761Z,13.49
2019-04-03T08:19:45.416Z,13.60
2019-04-03T08:22:18.095Z,13.69
2019-04-03T08:24:52.781Z,13.84
2019-04-03T08:27:24.361Z,13.98
2019-04-03T08:29:56.330Z,14.09
2019-04-03T08:32:28.037Z,14.23
2019-04-03T08:35:02.375Z,14.32
2019-04-03T08:37:33.573Z,14.48
2019-04-03T08:40:05.869Z,14.58
2019-04-03T08:42:38.645Z,14.66
2019-04-03T08:45:11.117Z,14.73
2019-04-03T08:47:46.142Z,14.83
2019-04-03T08:50:16.722Z,14.88
2019-04-03T08:52:48.519Z,14.91
2019-04-03T08:55:20.467Z,15.06
2019-04-03T08:57:53.258Z,15.23
2019-04-03T09:00:25.356Z,15.35
2019-04-03T09:02:57.168Z,15.46
2019-04-03T09:05:28.944Z,15.57
2019-04-03T09:08:00.848Z,15.56
2019-04-03T09:10:36.497Z,15.59
2019-04-03T09:13:16.856Z,15.72
2019-04-03T09:15:40.117Z,15.81
2019-04-03T09:18:11.842Z,16.00
2019-04-03T09:20:44.221Z,16.13
2019-04-03T09:23:16.293Z,16.29
2019-04-03T09:25:48.209Z,16.48
2019-04-03T09:28:20.920Z,16.64
2019-04-03T09:30:54.111Z,16.68
2019-04-03T09:33:27.991Z,16.61
2019-04-03T09:35:59.927Z,16.66
2019-04-03T09:38:35.294Z,16.66
2019-04-03T09:41:05.761Z,16.67
2019-04-03T09:43:39.389Z,16.73
2019-04-03T09:46:10.858Z,16.78
2019-04-03T09:48:42.637Z,16.87
2019-04-03T09:51:14.319Z,16.99
2019-04-03T09:53:46.301Z,17.09
2019-04-03T09:56:17.996Z,17.28
2019-04-03T09:58:49.664Z,17.37
2019-04-03T10:01:21.735Z,17.48
2019-04-03T10:03:55.064Z,17.66
2019-04-03T10:06:26.941Z,17.77
2019-04-03T10:08:58.736Z,17.88
2019-04-03T10:11:30.443Z,17.96
2019-04-03T10:14:02.381Z,18.25
2019-04-03T10:16:35.641Z,18.33
2019-04-03T10:19:07.675Z,18.40
2019-04-03T10:21:39.559Z,18.57
2019-04-03T10:24:11.211Z,18.67
2019-04-03T10:26:43.010Z,18.76
2019-04-03T10:29:14.718Z,18.77
2019-04-03T10:31:46.330Z,18.93
2019-04-03T10:34:18.153Z,19.12
2019-04-03T10:36:49.978Z,19.29
2019-04-03T10:39:21.778Z,19.38
2019-04-03T10:41:53.858Z,19.54
2019-04-03T10:44:25.696Z,19.71
2019-04-03T10:46:57.699Z,19.74
2019-04-03T10:49:31.554Z,19.95
2019-04-03T10:52:03.161Z,19.99
2019-04-03T10:54:37.406Z,19.91
2019-04-03T10:57:08.524Z,19.95
2019-04-03T10:59:40.330Z,19.75
2019-04-03T11:02:12.039Z,19.69
2019-04-03T11:04:44.723Z,19.85
2019-04-03T11:07:16.577Z,19.89
2019-04-03T11:09:48.754Z,20.01
2019-04-03T11:12:20.446Z,20.02
2019-04-03T11:14:52.182Z,19.93
2019-04-03T11:17:25.722Z,19.99
2019-04-03T11:19:57.491Z,19.94
2019-04-03T11:22:39.709Z,20.11
2019-04-03T11:25:03.054Z,20.11
2019-04-03T11:27:41.931Z,20.22
2019-04-03T11:30:11.382Z,20.35
2019-04-03T11:32:42.686Z,20.44
2019-04-03T11:35:14.962Z,20.57
2019-04-03T11:37:46.776Z,20.73
2019-04-03T11:40:18.803Z,20.80
2019-04-03T11:42:50.767Z,20.82
2019-04-03T11:45:22.566Z,20.75
2019-04-03T11:47:54.560Z,20.63
2019-04-03T11:50:26.592Z,20.59
2019-04-03T11:53:01.480Z,20.67
2019-04-03T11:55:32.141Z,20.85
2019-04-03T11:58:03.813Z,21.00
2019-04-03T12:00:43.679Z,20.97
2019-04-03T12:03:15.680Z,20.86
2019-04-03T12:05:48.254Z,20.92
2019-04-03T12:08:20.073Z,21.11
2019-04-03T12:10:51.867Z,21.16
2019-04-03T12:13:23.806Z,21.12
2019-04-03T12:15:58.129Z,20.81
2019-04-03T12:18:29.505Z,20.58
2019-04-03T12:21:03.058Z,20.46
2019-04-03T12:23:34.910Z,20.40
2019-04-03T12:26:07.047Z,20.52
2019-04-03T12:28:38.778Z,20.63
2019-04-03T12:31:10.581Z,20.68
2019-04-03T12:33:52.398Z,20.50
2019-04-03T12:36:15.968Z,20.53
2019-04-03T12:38:47.749Z,20.58
2019-04-03T12:41:19.449Z,20.66
2019-04-03T12:43:51.309Z,20.85
2019-04-03T12:46:37.505Z,20.85
2019-04-03T12:49:10.636Z,20.90
2019-04-03T12:51:42.402Z,20.85
2019-04-03T12:54:14.198Z,20.77
2019-04-03T12:56:46.843Z,20.73
2019-04-03T12:59:20.418Z,20.63
2019-04-03T13:01:51.933Z,20.53
2019-04-03T13:04:25.754Z,20.51
2019-04-03T13:06:57.250Z,20.61
2019-04-03T13:09:29.724Z,20.69
2019-04-03T13:12:01.832Z,20.74
2019-04-03T13:14:33.662Z,20.79
2019-04-03T13:17:05.898Z,20.76
2019-04-03T13:19:37.985Z,20.84
2019-04-03T13:22:11.175Z,20.79
2019-04-03T13:24:44.350Z,20.71
2019-04-03T13:27:16.778Z,20.57
2019-04-03T13:29:48.545Z,20.82
2019-04-03T13:32:22.189Z,20.79
2019-04-03T13:34:53.844Z,20.71
2019-04-03T13:37:25.719Z,20.58
2019-04-03T13:40:00.207Z,20.57
2019-04-03T13:42:32.422Z,20.59
2019-04-03T13:45:04.162Z,20.68
2019-04-03T13:47:35.956Z,20.72
2019-04-03T13:50:09.529Z,20.59
2019-04-03T13:52:47.546Z,20.60
2019-04-03T13:55:14.575Z,20.59
2019-04-03T13:57:46.927Z,20.65
2019-04-03T14:00:22.990Z,20.65
2019-04-03T14:02:56.039Z,20.72
2019-04-03T14:05:29.611Z,20.61
2019-04-03T14:08:00.475Z,20.70
2019-04-03T14:10:34.019Z,20.71
2019-04-03T14:13:05.890Z,20.70
2019-04-03T14:15:38.118Z,20.54
2019-04-03T14:18:11.046Z,20.45
2019-04-03T14:20:42.762Z,20.44
2019-04-03T14:23:14.549Z,20.44
2019-04-03T14:25:46.267Z,20.45
2019-04-03T14:28:18.457Z,20.38
2019-04-03T14:30:50.622Z,20.44
2019-04-03T14:33:24.881Z,20.43
2019-04-03T14:35:55.960Z,20.44
2019-04-03T14:38:29.041Z,20.43
2019-04-03T14:41:01.991Z,20.41
2019-04-03T14:43:34.563Z,20.34
2019-04-03T14:46:06.959Z,20.39
2019-04-03T14:48:38.688Z,20.27
2019-04-03T14:51:11.427Z,20.26
2019-04-03T14:53:45.027Z,20.24
2019-04-03T14:56:16.740Z,20.22
2019-04-03T14:58:48.497Z,20.28
2019-04-03T15:01:20.874Z,20.38
2019-04-03T15:03:52.901Z,20.31
2019-04-03T15:06:26.761Z,20.25
2019-04-03T15:08:58.610Z,20.27
2019-04-03T15:11:30.818Z,20.28
2019-04-03T15:14:03.206Z,20.23
2019-04-03T15:16:35.253Z,20.29
2019-04-03T15:19:07.213Z,20.21
2019-04-03T15:21:38.949Z,20.17
2019-04-03T15:24:11.451Z,20.36
2019-04-03T15:26:44.293Z,20.48
2019-04-03T15:29:16.100Z,20.50
2019-04-03T15:31:48.108Z,20.71
2019-04-03T15:34:19.952Z,20.82
2019-04-03T15:36:51.767Z,21.12
2019-04-03T15:39:24.044Z,21.49
2019-04-03T15:41:56.634Z,22.02
2019-04-03T15:44:28.893Z,22.26
2019-04-03T15:47:01.163Z,22.60
2019-04-03T15:49:34.044Z,22.92
2019-04-03T15:52:06.012Z,23.09
2019-04-03T15:54:37.721Z,23.38
2019-04-03T15:57:09.444Z,23.43
2019-04-03T15:59:41.045Z,23.41
2019-04-03T16:02:13.344Z,23.33
2019-04-03T16:04:45.161Z,23.28
2019-04-03T16:07:17.190Z,22.88
2019-04-03T16:09:50.682Z,22.97
2019-04-03T16:12:23.741Z,22.69
2019-04-03T16:14:55.519Z,22.23
2019-04-03T16:17:28.305Z,22.14
2019-04-03T16:19:59.921Z,22.27
2019-04-03T16:22:32.284Z,22.40
2019-04-03T16:25:04.091Z,22.57
2019-04-03T16:27:36.372Z,22.63
2019-04-03T16:30:08.444Z,21.97
2019-04-03T16:32:40.172Z,21.38
2019-04-03T16:35:13.730Z,21.53
2019-04-03T16:37:45.372Z,21.59
2019-04-03T16:40:17.195Z,21.60
2019-04-03T16:42:52.723Z,21.49
2019-04-03T16:45:22.365Z,20.98
2019-04-03T16:47:55.216Z,20.49
2019-04-03T16:50:28.006Z,20.11
2019-04-03T16:53:00.703Z,19.86
2019-04-03T16:55:32.690Z,19.60
2019-04-03T16:58:04.499Z,19.35
2019-04-03T17:00:38.563Z,19.05
2019-04-03T17:03:09.573Z,18.84
2019-04-03T17:05:43.326Z,18.68
2019-04-03T17:08:14.704Z,18.48
2019-04-03T17:10:46.442Z,18.34
2019-04-03T17:13:18.880Z,18.25
2019-04-03T17:15:51.554Z,18.14
2019-04-03T17:18:23.197Z,18.03
2019-04-03T17:20:56.386Z,17.94
2019-04-03T17:23:28.283Z,17.83
2019-04-03T17:26:00.232Z,17.74
2019-04-03T17:28:32.461Z,17.59
2019-04-03T17:31:04.448Z,17.57
2019-04-03T17:33:36.507Z,17.49
2019-04-03T17:36:08.264Z,17.37
2019-04-03T17:38:40.588Z,17.30
2019-04-03T17:41:12.393Z,17.24
2019-04-03T17:43:44.154Z,17.14
2019-04-03T17:46:17.614Z,17.07
2019-04-03T17:48:49.319Z,17.05
2019-04-03T17:51:21.080Z,16.93
2019-04-03T17:53:52.875Z,16.95
2019-04-03T17:56:24.599Z,16.83
2019-04-03T17:58:56.316Z,16.73
2019-04-03T18:01:28.018Z,16.73
2019-04-03T18:03:59.710Z,16.66
2019-04-03T18:06:31.401Z,16.65
2019-04-03T18:09:04.229Z,16.59
2019-04-03T18:11:37.433Z,16.57
2019-04-03T18:14:09.105Z,16.50
2019-04-03T18:16:41.776Z,16.38
2019-04-03T18:19:13.467Z,16.38
2019-04-03T18:21:46.890Z,16.26
2019-04-03T18:24:18.596Z,16.27
2019-04-03T18:26:50.303Z,16.21
2019-04-03T18:29:24.327Z,16.15
2019-04-03T18:31:55.297Z,16.12
2019-04-03T18:34:26.913Z,16.09
2019-04-03T18:36:58.628Z,16.02
2019-04-03T18:39:30.397Z,15.95
2019-04-03T18:42:02.546Z,15.91
2019-04-03T18:44:34.301Z,15.91
2019-04-03T18:47:06.759Z,15.91
2019-04-03T18:49:40.075Z,15.93
2019-04-03T18:52:11.849Z,15.91
2019-04-03T18:54:43.693Z,15.88
2019-04-03T18:57:17.120Z,15.79
2019-04-03T18:59:48.881Z,15.80
2019-04-03T19:02:20.662Z,15.77
2019-04-03T19:05:01.713Z,15.73
2019-04-03T19:07:25.738Z,15.72
2019-04-03T19:10:06.865Z,15.66
2019-04-03T19:12:35.743Z,15.65
2019-04-03T19:15:04.348Z,15.63
2019-04-03T19:17:37.772Z,15.61
2019-04-03T19:20:11.277Z,15.57
2019-04-03T19:22:42.854Z,15.51
2019-04-03T19:25:15.933Z,15.48
2019-04-03T19:27:49.798Z,15.49
2019-04-03T19:30:21.024Z,15.49
2019-04-03T19:32:52.859Z,15.44
2019-04-03T19:35:27.849Z,15.43
2019-04-03T19:37:58.452Z,15.40
2019-04-03T19:40:30.258Z,15.38
2019-04-03T19:43:02.011Z,15.32
2019-04-03T19:45:33.794Z,15.31
2019-04-03T19:48:05.461Z,15.28
2019-04-03T19:50:37.222Z,15.28
2019-04-03T19:53:09.005Z,15.19
2019-04-03T19:55:40.680Z,15.16
2019-04-03T19:58:12.345Z,15.16
2019-04-03T20:00:44.116Z,15.09
2019-04-03T20:03:15.888Z,15.04
2019-04-03T20:05:50.101Z,15.07
2019-04-03T20:08:20.944Z,15.02
2019-04-03T20:10:52.622Z,14.99
2019-04-03T20:13:24.540Z,14.95
2019-04-03T20:15:56.228Z,14.94
2019-04-03T20:18:27.825Z,14.88
2019-04-03T20:20:59.436Z,14.88
2019-04-03T20:23:31.140Z,14.85
2019-04-03T20:26:04.712Z,14.83
2019-04-03T20:28:36.946Z,14.76
2019-04-03T20:31:08.705Z,14.76
2019-04-03T20:33:42.152Z,14.72
2019-04-03T20:36:16.513Z,14.66
2019-04-03T20:38:47.188Z,14.64
2019-04-03T20:41:18.962Z,14.59
2019-04-03T20:43:50.753Z,14.59
2019-04-03T20:46:23.867Z,14.50
2019-04-03T20:48:58.451Z,14.53
2019-04-03T20:51:29.502Z,14.53
2019-04-03T20:54:01.283Z,14.52
2019-04-03T20:56:34.207Z,14.39
2019-04-03T20:59:06.018Z,14.42
2019-04-03T21:01:37.718Z,14.42
2019-04-03T21:04:09.427Z,14.39
2019-04-03T21:06:41.438Z,14.30
2019-04-03T21:09:13.230Z,14.33
2019-04-03T21:11:45.009Z,14.29
2019-04-03T21:14:16.730Z,14.22
2019-04-03T21:16:48.540Z,14.19
2019-04-03T21:19:21.435Z,14.22
2019-04-03T21:21:53.712Z,14.22
2019-04-03T21:24:25.404Z,14.20
2019-04-03T21:26:57.115Z,14.10
2019-04-03T21:29:28.835Z,14.10
2019-04-03T21:32:00.529Z,14.02
2019-04-03T21:34:33.221Z,14.02
2019-04-03T21:37:04.968Z,13.95
2019-04-03T21:39:36.702Z,13.93
2019-04-03T21:42:08.434Z,13.89
2019-04-03T21:44:40.220Z,13.89
2019-04-03T21:47:12.254Z,13.83
2019-04-03T21:49:43.896Z,13.84
2019-04-03T21:52:15.614Z,13.82
2019-04-03T21:54:47.331Z,13.79
2019-04-03T21:57:19.126Z,13.80
2019-04-03T21:59:50.681Z,13.83
2019-04-03T22:02:22.408Z,13.76
2019-04-03T22:04:55.194Z,13.68
2019-04-03T22:07:28.540Z,13.64
2019-04-03T22:10:01.902Z,13.63
2019-04-03T22:12:34.827Z,13.53
2019-04-03T22:15:08.243Z,13.53
2019-04-03T22:17:40.417Z,13.51
2019-04-03T22:20:12.885Z,13.51
2019-04-03T22:22:45.054Z,13.48
2019-04-03T22:25:17.241Z,13.44
2019-04-03T22:27:49.441Z,13.42
2019-04-03T22:30:21.784Z,13.34
2019-04-03T22:32:55.817Z,13.33
2019-04-03T22:35:28.337Z,13.31
2019-04-03T22:38:02.161Z,13.24
2019-04-03T22:40:34.549Z,13.24
2019-04-03T22:43:07.318Z,13.14
2019-04-03T22:45:39.543Z,13.12
2019-04-03T22:48:11.801Z,13.12
2019-04-03T22:50:43.955Z,13.06
2019-04-03T22:53:16.225Z,13.08
2019-04-03T22:55:48.489Z,13.01
2019-04-03T22:58:21.516Z,13.01
2019-04-03T23:00:53.802Z,12.97
2019-04-03T23:03:25.973Z,12.93
2019-04-03T23:05:58.149Z,12.94
2019-04-03T23:08:30.417Z,12.95
2019-04-03T23:11:03.752Z,12.89
2019-04-03T23:13:36.272Z,12.82
2019-04-03T23:16:09.624Z,12.81
2019-04-03T23:18:42.640Z,12.82
2019-04-03T23:21:15.042Z,12.73
2019-04-03T23:23:48.839Z,12.75
2019-04-03T23:26:21.054Z,12.73
2019-04-03T23:28:53.449Z,12.74
2019-04-03T23:31:25.645Z,12.71
2019-04-03T23:33:57.865Z,12.69
2019-04-03T23:36:30.092Z,12.59
2019-04-03T23:39:02.288Z,12.59
2019-04-03T23:41:36.658Z,12.56
2019-04-03T23:44:11.028Z,12.56
2019-04-03T23:46:45.479Z,12.52
2019-04-03T23:49:18.127Z,12.52
2019-04-03T23:51:51.716Z,12.52
2019-04-03T23:54:23.835Z,12.48
2019-04-03T23:56:56.022Z,12.44
2019-04-03T23:59:28.415Z,12.40
